sensor_id;sensor_type;location;lat;lon;timestamp;P1;durP1;ratioP1;P2;durP2;ratioP2
79139;SDS011;68546;59.142;37.948;2023-05-10T00:00:39;9.27;;;3.60;;
79139;SDS011;68546;59.142;37.948;2023-05-10T00:03:05;9.23;;;3.33;;
79139;SDS011;68546;59.142;37.948;2023-05-10T00:05:32;10.05;;;3.50;;
79139;SDS011;68546;59.142;37.948;2023-05-10T00:07:58;8.13;;;3.63;;
79139;SDS011;68546;59.142;37.948;2023-05-10T00:10:25;12.02;;;3.95;;
79139;SDS011;68546;59.142;37.948;2023-05-10T00:12:51;15.10;;;4.45;;
79139;SDS011;68546;59.142;37.948;2023-05-10T00:15:17;14.30;;;4.87;;
79139;SDS011;68546;59.142;37.948;2023-05-10T00:17:44;15.48;;;5.43;;
79139;SDS011;68546;59.142;37.948;2023-05-10T00:20:10;9.80;;;4.10;;
79139;SDS011;68546;59.142;37.948;2023-05-10T00:22:37;11.38;;;4.88;;
79139;SDS011;68546;59.142;37.948;2023-05-10T00:25:08;10.40;;;4.22;;
79139;SDS011;68546;59.142;37.948;2023-05-10T00:27:35;11.07;;;4.50;;
79139;SDS011;68546;59.142;37.948;2023-05-10T00:30:02;9.57;;;4.22;;
79139;SDS011;68546;59.142;37.948;2023-05-10T00:32:30;10.00;;;4.13;;
79139;SDS011;68546;59.142;37.948;2023-05-10T00:34:56;13.95;;;4.80;;
79139;SDS011;68546;59.142;37.948;2023-05-10T00:37:23;12.88;;;4.97;;
79139;SDS011;68546;59.142;37.948;2023-05-10T00:39:49;14.93;;;5.90;;
79139;SDS011;68546;59.142;37.948;2023-05-10T00:42:16;19.52;;;7.65;;
79139;SDS011;68546;59.142;37.948;2023-05-10T00:44:42;23.85;;;7.65;;
79139;SDS011;68546;59.142;37.948;2023-05-10T00:47:09;23.75;;;7.63;;
79139;SDS011;68546;59.142;37.948;2023-05-10T00:49:36;21.65;;;8.15;;
79139;SDS011;68546;59.142;37.948;2023-05-10T00:52:03;19.60;;;8.70;;
79139;SDS011;68546;59.142;37.948;2023-05-10T00:54:29;21.95;;;8.23;;
79139;SDS011;68546;59.142;37.948;2023-05-10T00:56:56;23.48;;;7.30;;
79139;SDS011;68546;59.142;37.948;2023-05-10T00:59:22;19.75;;;7.57;;
79139;SDS011;68546;59.142;37.948;2023-05-10T01:01:49;21.60;;;7.82;;
79139;SDS011;68546;59.142;37.948;2023-05-10T01:04:17;15.13;;;6.30;;
79139;SDS011;68546;59.142;37.948;2023-05-10T01:06:45;21.95;;;6.70;;
79139;SDS011;68546;59.142;37.948;2023-05-10T01:09:12;16.80;;;6.82;;
79139;SDS011;68546;59.142;37.948;2023-05-10T01:11:38;18.75;;;7.13;;
79139;SDS011;68546;59.142;37.948;2023-05-10T01:14:05;17.42;;;6.82;;
79139;SDS011;68546;59.142;37.948;2023-05-10T01:16:33;19.97;;;7.27;;
79139;SDS011;68546;59.142;37.948;2023-05-10T01:19:04;15.88;;;6.38;;
79139;SDS011;68546;59.142;37.948;2023-05-10T01:21:38;16.55;;;7.45;;
79139;SDS011;68546;59.142;37.948;2023-05-10T01:27:02;23.40;;;7.38;;
79139;SDS011;68546;59.142;37.948;2023-05-10T01:29:57;16.60;;;7.03;;
79139;SDS011;68546;59.142;37.948;2023-05-10T01:32:32;21.77;;;7.70;;
79139;SDS011;68546;59.142;37.948;2023-05-10T01:35:09;19.92;;;7.20;;
79139;SDS011;68546;59.142;37.948;2023-05-10T01:37:44;15.27;;;6.18;;
79139;SDS011;68546;59.142;37.948;2023-05-10T01:43:22;15.43;;;6.43;;
79139;SDS011;68546;59.142;37.948;2023-05-10T01:46:28;15.70;;;5.72;;
79139;SDS011;68546;59.142;37.948;2023-05-10T01:48:53;15.63;;;6.03;;
79139;SDS011;68546;59.142;37.948;2023-05-10T01:51:25;20.55;;;6.53;;
79139;SDS011;68546;59.142;37.948;2023-05-10T01:53:58;16.02;;;6.05;;
79139;SDS011;68546;59.142;37.948;2023-05-10T01:56:28;16.30;;;5.93;;
79139;SDS011;68546;59.142;37.948;2023-05-10T01:58:56;11.13;;;4.60;;
79139;SDS011;68546;59.142;37.948;2023-05-10T02:01:27;15.02;;;5.60;;
79139;SDS011;68546;59.142;37.948;2023-05-10T02:03:54;15.88;;;6.10;;
79139;SDS011;68546;59.142;37.948;2023-05-10T02:06:26;13.90;;;5.22;;
79139;SDS011;68546;59.142;37.948;2023-05-10T02:08:53;19.63;;;6.50;;
79139;SDS011;68546;59.142;37.948;2023-05-10T02:11:21;15.93;;;5.30;;
79139;SDS011;68546;59.142;37.948;2023-05-10T02:13:49;10.63;;;3.72;;
79139;SDS011;68546;59.142;37.948;2023-05-10T02:16:17;14.82;;;5.13;;
79139;SDS011;68546;59.142;37.948;2023-05-10T02:18:46;21.38;;;7.38;;
79139;SDS011;68546;59.142;37.948;2023-05-10T02:21:15;21.63;;;7.60;;
79139;SDS011;68546;59.142;37.948;2023-05-10T02:23:44;22.42;;;7.35;;
79139;SDS011;68546;59.142;37.948;2023-05-10T02:26:12;15.90;;;5.93;;
79139;SDS011;68546;59.142;37.948;2023-05-10T02:28:40;12.20;;;4.38;;
79139;SDS011;68546;59.142;37.948;2023-05-10T02:31:07;13.07;;;4.22;;
79139;SDS011;68546;59.142;37.948;2023-05-10T02:33:40;13.00;;;5.03;;
79139;SDS011;68546;59.142;37.948;2023-05-10T02:36:08;18.90;;;5.53;;
79139;SDS011;68546;59.142;37.948;2023-05-10T02:38:36;16.45;;;5.72;;
79139;SDS011;68546;59.142;37.948;2023-05-10T02:41:03;19.90;;;5.38;;
79139;SDS011;68546;59.142;37.948;2023-05-10T02:43:32;16.70;;;5.47;;
79139;SDS011;68546;59.142;37.948;2023-05-10T02:45:59;10.77;;;3.47;;
79139;SDS011;68546;59.142;37.948;2023-05-10T02:48:26;13.18;;;5.00;;
79139;SDS011;68546;59.142;37.948;2023-05-10T02:50:52;14.25;;;5.40;;
79139;SDS011;68546;59.142;37.948;2023-05-10T02:53:29;14.68;;;5.22;;
79139;SDS011;68546;59.142;37.948;2023-05-10T02:55:58;13.80;;;5.57;;
79139;SDS011;68546;59.142;37.948;2023-05-10T02:58:29;14.17;;;4.80;;
79139;SDS011;68546;59.142;37.948;2023-05-10T03:00:56;11.00;;;2.67;;
79139;SDS011;68546;59.142;37.948;2023-05-10T03:03:22;9.52;;;2.88;;
79139;SDS011;68546;59.142;37.948;2023-05-10T03:05:50;6.70;;;2.33;;
79139;SDS011;68546;59.142;37.948;2023-05-10T03:08:16;9.55;;;2.97;;
79139;SDS011;68546;59.142;37.948;2023-05-10T03:16:30;4.50;;;1.48;;
79139;SDS011;68546;59.142;37.948;2023-05-10T03:19:06;11.52;;;2.15;;
79139;SDS011;68546;59.142;37.948;2023-05-10T03:21:40;5.38;;;1.40;;
79139;SDS011;68546;59.142;37.948;2023-05-10T03:24:10;7.10;;;1.60;;
79139;SDS011;68546;59.142;37.948;2023-05-10T03:26:43;8.00;;;1.52;;
79139;SDS011;68546;59.142;37.948;2023-05-10T03:29:15;4.93;;;1.55;;
79139;SDS011;68546;59.142;37.948;2023-05-10T03:31:43;8.73;;;1.27;;
79139;SDS011;68546;59.142;37.948;2023-05-10T03:34:09;8.95;;;1.83;;
79139;SDS011;68546;59.142;37.948;2023-05-10T03:36:36;5.67;;;1.30;;
79139;SDS011;68546;59.142;37.948;2023-05-10T03:39:02;7.05;;;1.50;;
79139;SDS011;68546;59.142;37.948;2023-05-10T03:41:28;6.15;;;1.30;;
79139;SDS011;68546;59.142;37.948;2023-05-10T03:43:55;6.00;;;1.58;;
79139;SDS011;68546;59.142;37.948;2023-05-10T03:46:21;4.93;;;1.25;;
79139;SDS011;68546;59.142;37.948;2023-05-10T03:48:48;4.37;;;1.30;;
79139;SDS011;68546;59.142;37.948;2023-05-10T03:51:14;4.47;;;1.20;;
79139;SDS011;68546;59.142;37.948;2023-05-10T03:53:41;6.75;;;1.40;;
79139;SDS011;68546;59.142;37.948;2023-05-10T03:56:07;6.28;;;1.38;;
79139;SDS011;68546;59.142;37.948;2023-05-10T03:58:34;5.90;;;1.52;;
79139;SDS011;68546;59.142;37.948;2023-05-10T04:01:00;8.63;;;1.40;;
79139;SDS011;68546;59.142;37.948;2023-05-10T04:03:27;5.78;;;1.50;;
79139;SDS011;68546;59.142;37.948;2023-05-10T04:05:59;4.85;;;1.25;;
79139;SDS011;68546;59.142;37.948;2023-05-10T04:08:27;5.50;;;1.25;;
79139;SDS011;68546;59.142;37.948;2023-05-10T04:10:54;6.40;;;1.92;;
79139;SDS011;68546;59.142;37.948;2023-05-10T04:13:21;9.27;;;2.40;;
79139;SDS011;68546;59.142;37.948;2023-05-10T04:15:48;12.30;;;3.22;;
79139;SDS011;68546;59.142;37.948;2023-05-10T04:18:14;11.38;;;2.70;;
79139;SDS011;68546;59.142;37.948;2023-05-10T04:20:41;7.68;;;1.77;;
79139;SDS011;68546;59.142;37.948;2023-05-10T04:23:07;10.88;;;2.70;;
79139;SDS011;68546;59.142;37.948;2023-05-10T04:25:34;15.80;;;4.23;;
79139;SDS011;68546;59.142;37.948;2023-05-10T04:28:01;6.85;;;1.63;;
79139;SDS011;68546;59.142;37.948;2023-05-10T04:30:27;6.50;;;1.77;;
79139;SDS011;68546;59.142;37.948;2023-05-10T04:32:54;7.43;;;1.85;;
79139;SDS011;68546;59.142;37.948;2023-05-10T04:35:21;5.80;;;1.90;;
79139;SDS011;68546;59.142;37.948;2023-05-10T04:37:47;8.47;;;1.87;;
79139;SDS011;68546;59.142;37.948;2023-05-10T04:40:13;7.95;;;2.28;;
79139;SDS011;68546;59.142;37.948;2023-05-10T04:42:40;6.25;;;1.80;;
79139;SDS011;68546;59.142;37.948;2023-05-10T04:45:07;7.70;;;2.10;;
79139;SDS011;68546;59.142;37.948;2023-05-10T04:47:35;14.32;;;5.55;;
79139;SDS011;68546;59.142;37.948;2023-05-10T04:50:03;10.53;;;1.80;;
79139;SDS011;68546;59.142;37.948;2023-05-10T04:52:30;7.85;;;1.80;;
79139;SDS011;68546;59.142;37.948;2023-05-10T04:54:56;5.78;;;1.38;;
79139;SDS011;68546;59.142;37.948;2023-05-10T04:57:22;8.43;;;1.40;;
79139;SDS011;68546;59.142;37.948;2023-05-10T04:59:48;6.90;;;1.70;;
79139;SDS011;68546;59.142;37.948;2023-05-10T05:02:15;8.60;;;1.43;;
79139;SDS011;68546;59.142;37.948;2023-05-10T05:04:41;7.68;;;1.45;;
79139;SDS011;68546;59.142;37.948;2023-05-10T05:07:07;5.28;;;1.50;;
79139;SDS011;68546;59.142;37.948;2023-05-10T05:09:35;4.80;;;1.60;;
79139;SDS011;68546;59.142;37.948;2023-05-10T05:12:01;7.63;;;1.70;;
79139;SDS011;68546;59.142;37.948;2023-05-10T05:14:28;7.50;;;1.90;;
79139;SDS011;68546;59.142;37.948;2023-05-10T05:16:54;5.88;;;1.85;;
79139;SDS011;68546;59.142;37.948;2023-05-10T05:19:21;9.45;;;1.85;;
79139;SDS011;68546;59.142;37.948;2023-05-10T05:21:48;5.55;;;1.30;;
79139;SDS011;68546;59.142;37.948;2023-05-10T05:24:15;6.18;;;1.65;;
79139;SDS011;68546;59.142;37.948;2023-05-10T05:26:42;6.73;;;1.77;;
79139;SDS011;68546;59.142;37.948;2023-05-10T05:29:08;6.90;;;1.50;;
79139;SDS011;68546;59.142;37.948;2023-05-10T05:31:35;5.22;;;1.40;;
79139;SDS011;68546;59.142;37.948;2023-05-10T05:34:02;5.20;;;1.83;;
79139;SDS011;68546;59.142;37.948;2023-05-10T05:36:28;6.97;;;1.80;;
79139;SDS011;68546;59.142;37.948;2023-05-10T05:38:54;6.80;;;1.90;;
79139;SDS011;68546;59.142;37.948;2023-05-10T05:41:21;6.72;;;1.75;;
79139;SDS011;68546;59.142;37.948;2023-05-10T05:43:47;8.18;;;1.80;;
79139;SDS011;68546;59.142;37.948;2023-05-10T05:46:13;6.15;;;1.55;;
79139;SDS011;68546;59.142;37.948;2023-05-10T05:48:40;4.75;;;1.73;;
79139;SDS011;68546;59.142;37.948;2023-05-10T05:51:06;4.97;;;1.80;;
79139;SDS011;68546;59.142;37.948;2023-05-10T05:53:33;6.15;;;1.52;;
79139;SDS011;68546;59.142;37.948;2023-05-10T05:56:00;7.47;;;1.92;;
79139;SDS011;68546;59.142;37.948;2023-05-10T05:58:27;7.75;;;2.47;;
79139;SDS011;68546;59.142;37.948;2023-05-10T06:00:54;10.00;;;2.75;;
79139;SDS011;68546;59.142;37.948;2023-05-10T06:03:21;8.60;;;2.90;;
79139;SDS011;68546;59.142;37.948;2023-05-10T06:05:47;12.90;;;3.10;;
79139;SDS011;68546;59.142;37.948;2023-05-10T06:08:14;11.60;;;4.03;;
79139;SDS011;68546;59.142;37.948;2023-05-10T06:10:40;16.50;;;5.53;;
79139;SDS011;68546;59.142;37.948;2023-05-10T06:13:06;17.17;;;6.53;;
79139;SDS011;68546;59.142;37.948;2023-05-10T06:15:33;18.53;;;6.87;;
79139;SDS011;68546;59.142;37.948;2023-05-10T06:18:00;18.35;;;8.02;;
79139;SDS011;68546;59.142;37.948;2023-05-10T06:20:27;24.40;;;10.43;;
79139;SDS011;68546;59.142;37.948;2023-05-10T06:22:53;28.95;;;11.07;;
79139;SDS011;68546;59.142;37.948;2023-05-10T06:25:20;31.20;;;13.00;;
79139;SDS011;68546;59.142;37.948;2023-05-10T06:27:47;15.40;;;7.80;;
79139;SDS011;68546;59.142;37.948;2023-05-10T06:30:13;16.38;;;7.28;;
79139;SDS011;68546;59.142;37.948;2023-05-10T06:32:41;17.02;;;6.75;;
79139;SDS011;68546;59.142;37.948;2023-05-10T06:35:09;17.40;;;6.35;;
79139;SDS011;68546;59.142;37.948;2023-05-10T06:37:35;22.00;;;5.93;;
79139;SDS011;68546;59.142;37.948;2023-05-10T06:40:02;13.80;;;5.47;;
79139;SDS011;68546;59.142;37.948;2023-05-10T06:42:29;16.17;;;5.85;;
79139;SDS011;68546;59.142;37.948;2023-05-10T06:44:55;23.55;;;7.50;;
79139;SDS011;68546;59.142;37.948;2023-05-10T06:47:22;22.75;;;8.18;;
79139;SDS011;68546;59.142;37.948;2023-05-10T06:49:48;24.10;;;8.43;;
79139;SDS011;68546;59.142;37.948;2023-05-10T06:52:14;22.57;;;7.77;;
79139;SDS011;68546;59.142;37.948;2023-05-10T06:54:41;22.77;;;7.13;;
79139;SDS011;68546;59.142;37.948;2023-05-10T06:57:07;23.38;;;6.80;;
79139;SDS011;68546;59.142;37.948;2023-05-10T06:59:33;23.80;;;5.30;;
79139;SDS011;68546;59.142;37.948;2023-05-10T07:02:00;14.20;;;4.80;;
79139;SDS011;68546;59.142;37.948;2023-05-10T07:04:27;15.40;;;5.30;;
79139;SDS011;68546;59.142;37.948;2023-05-10T07:06:54;17.77;;;5.28;;
79139;SDS011;68546;59.142;37.948;2023-05-10T07:09:20;15.30;;;4.90;;
79139;SDS011;68546;59.142;37.948;2023-05-10T07:11:50;15.10;;;4.57;;
79139;SDS011;68546;59.142;37.948;2023-05-10T07:14:16;13.70;;;5.00;;
79139;SDS011;68546;59.142;37.948;2023-05-10T07:16:42;11.10;;;4.03;;
79139;SDS011;68546;59.142;37.948;2023-05-10T07:19:10;13.57;;;3.80;;
79139;SDS011;68546;59.142;37.948;2023-05-10T07:21:37;11.95;;;4.18;;
79139;SDS011;68546;59.142;37.948;2023-05-10T07:24:04;9.57;;;3.47;;
79139;SDS011;68546;59.142;37.948;2023-05-10T07:26:31;15.02;;;5.22;;
79139;SDS011;68546;59.142;37.948;2023-05-10T07:28:57;11.43;;;3.77;;
79139;SDS011;68546;59.142;37.948;2023-05-10T07:31:25;7.10;;;2.88;;
79139;SDS011;68546;59.142;37.948;2023-05-10T07:33:52;6.25;;;2.10;;
79139;SDS011;68546;59.142;37.948;2023-05-10T07:36:19;7.25;;;2.55;;
79139;SDS011;68546;59.142;37.948;2023-05-10T07:38:48;8.35;;;2.47;;
79139;SDS011;68546;59.142;37.948;2023-05-10T07:41:15;10.37;;;2.80;;
79139;SDS011;68546;59.142;37.948;2023-05-10T07:43:42;8.45;;;2.60;;
79139;SDS011;68546;59.142;37.948;2023-05-10T07:46:08;8.95;;;2.17;;
79139;SDS011;68546;59.142;37.948;2023-05-10T07:48:37;7.38;;;2.55;;
79139;SDS011;68546;59.142;37.948;2023-05-10T07:51:04;7.22;;;2.03;;
79139;SDS011;68546;59.142;37.948;2023-05-10T07:53:33;8.27;;;2.83;;
79139;SDS011;68546;59.142;37.948;2023-05-10T07:56:18;6.55;;;2.53;;
79139;SDS011;68546;59.142;37.948;2023-05-10T07:58:51;6.28;;;2.20;;
79139;SDS011;68546;59.142;37.948;2023-05-10T08:01:17;11.57;;;1.83;;
79139;SDS011;68546;59.142;37.948;2023-05-10T08:03:44;6.85;;;1.90;;
79139;SDS011;68546;59.142;37.948;2023-05-10T08:06:11;5.03;;;1.73;;
79139;SDS011;68546;59.142;37.948;2023-05-10T08:08:38;10.65;;;2.20;;
79139;SDS011;68546;59.142;37.948;2023-05-10T08:11:04;6.75;;;2.03;;
79139;SDS011;68546;59.142;37.948;2023-05-10T08:13:31;7.95;;;2.90;;
79139;SDS011;68546;59.142;37.948;2023-05-10T08:15:58;10.27;;;2.65;;
79139;SDS011;68546;59.142;37.948;2023-05-10T08:18:25;9.47;;;5.83;;
79139;SDS011;68546;59.142;37.948;2023-05-10T08:20:53;11.88;;;5.90;;
79139;SDS011;68546;59.142;37.948;2023-05-10T08:23:21;9.30;;;3.38;;
79139;SDS011;68546;59.142;37.948;2023-05-10T08:25:48;14.30;;;4.15;;
79139;SDS011;68546;59.142;37.948;2023-05-10T08:28:15;11.02;;;4.35;;
79139;SDS011;68546;59.142;37.948;2023-05-10T08:30:44;9.53;;;2.73;;
79139;SDS011;68546;59.142;37.948;2023-05-10T08:33:10;6.97;;;2.38;;
79139;SDS011;68546;59.142;37.948;2023-05-10T08:35:38;6.57;;;2.20;;
79139;SDS011;68546;59.142;37.948;2023-05-10T08:38:05;6.22;;;1.92;;
79139;SDS011;68546;59.142;37.948;2023-05-10T08:40:32;8.65;;;2.40;;
79139;SDS011;68546;59.142;37.948;2023-05-10T08:45:39;8.73;;;1.60;;
79139;SDS011;68546;59.142;37.948;2023-05-10T08:48:09;8.63;;;1.77;;
79139;SDS011;68546;59.142;37.948;2023-05-10T08:50:38;7.43;;;2.25;;
79139;SDS011;68546;59.142;37.948;2023-05-10T08:53:11;4.75;;;1.52;;
79139;SDS011;68546;59.142;37.948;2023-05-10T08:55:39;4.13;;;1.27;;
79139;SDS011;68546;59.142;37.948;2023-05-10T08:58:09;7.40;;;3.03;;
79139;SDS011;68546;59.142;37.948;2023-05-10T09:00:36;7.82;;;2.50;;
79139;SDS011;68546;59.142;37.948;2023-05-10T09:03:05;6.10;;;2.70;;
79139;SDS011;68546;59.142;37.948;2023-05-10T09:05:33;5.22;;;1.52;;
79139;SDS011;68546;59.142;37.948;2023-05-10T09:08:00;4.27;;;1.60;;
79139;SDS011;68546;59.142;37.948;2023-05-10T09:10:27;4.88;;;1.55;;
79139;SDS011;68546;59.142;37.948;2023-05-10T09:12:56;4.80;;;1.40;;
79139;SDS011;68546;59.142;37.948;2023-05-10T09:15:24;7.00;;;2.00;;
79139;SDS011;68546;59.142;37.948;2023-05-10T09:17:50;6.57;;;1.45;;
79139;SDS011;68546;59.142;37.948;2023-05-10T09:20:17;9.13;;;2.13;;
79139;SDS011;68546;59.142;37.948;2023-05-10T09:22:43;10.07;;;2.60;;
79139;SDS011;68546;59.142;37.948;2023-05-10T09:25:12;9.43;;;2.92;;
79139;SDS011;68546;59.142;37.948;2023-05-10T09:27:44;12.80;;;5.03;;
79139;SDS011;68546;59.142;37.948;2023-05-10T09:30:25;5.90;;;2.10;;
79139;SDS011;68546;59.142;37.948;2023-05-10T09:32:53;6.00;;;2.30;;
79139;SDS011;68546;59.142;37.948;2023-05-10T09:35:22;6.00;;;1.63;;
79139;SDS011;68546;59.142;37.948;2023-05-10T09:37:52;7.18;;;1.70;;
79139;SDS011;68546;59.142;37.948;2023-05-10T09:40:21;4.80;;;1.80;;
79139;SDS011;68546;59.142;37.948;2023-05-10T09:42:53;8.20;;;2.00;;
79139;SDS011;68546;59.142;37.948;2023-05-10T09:45:24;4.83;;;1.30;;
79139;SDS011;68546;59.142;37.948;2023-05-10T09:47:53;5.07;;;1.30;;
79139;SDS011;68546;59.142;37.948;2023-05-10T09:50:20;6.85;;;1.60;;
79139;SDS011;68546;59.142;37.948;2023-05-10T09:55:22;5.95;;;2.85;;
79139;SDS011;68546;59.142;37.948;2023-05-10T09:57:58;6.67;;;2.97;;
79139;SDS011;68546;59.142;37.948;2023-05-10T10:00:26;10.77;;;1.60;;
79139;SDS011;68546;59.142;37.948;2023-05-10T10:02:57;5.40;;;1.85;;
79139;SDS011;68546;59.142;37.948;2023-05-10T10:05:28;4.90;;;1.35;;
79139;SDS011;68546;59.142;37.948;2023-05-10T10:07:58;13.75;;;5.53;;
79139;SDS011;68546;59.142;37.948;2023-05-10T10:10:25;12.57;;;3.60;;
79139;SDS011;68546;59.142;37.948;2023-05-10T10:12:54;9.30;;;3.10;;
79139;SDS011;68546;59.142;37.948;2023-05-10T10:15:22;10.73;;;4.32;;
79139;SDS011;68546;59.142;37.948;2023-05-10T10:17:50;5.10;;;2.00;;
79139;SDS011;68546;59.142;37.948;2023-05-10T10:20:19;6.53;;;2.20;;
79139;SDS011;68546;59.142;37.948;2023-05-10T10:22:48;5.80;;;1.57;;
79139;SDS011;68546;59.142;37.948;2023-05-10T10:25:15;7.75;;;2.50;;
79139;SDS011;68546;59.142;37.948;2023-05-10T10:30:28;7.00;;;2.85;;
79139;SDS011;68546;59.142;37.948;2023-05-10T10:36:03;11.33;;;3.73;;
79139;SDS011;68546;59.142;37.948;2023-05-10T10:41:27;9.07;;;3.80;;
79139;SDS011;68546;59.142;37.948;2023-05-10T10:47:10;10.98;;;2.15;;
79139;SDS011;68546;59.142;37.948;2023-05-10T10:55:02;6.57;;;2.00;;
79139;SDS011;68546;59.142;37.948;2023-05-10T10:57:53;6.38;;;1.40;;
79139;SDS011;68546;59.142;37.948;2023-05-10T11:08:08;5.20;;;1.50;;
79139;SDS011;68546;59.142;37.948;2023-05-10T11:10:40;5.82;;;2.03;;
79139;SDS011;68546;59.142;37.948;2023-05-10T11:13:33;6.15;;;1.50;;
79139;SDS011;68546;59.142;37.948;2023-05-10T11:16:40;4.53;;;1.50;;
79139;SDS011;68546;59.142;37.948;2023-05-10T11:19:09;8.43;;;1.55;;
79139;SDS011;68546;59.142;37.948;2023-05-10T11:24:41;4.25;;;1.50;;
79139;SDS011;68546;59.142;37.948;2023-05-10T11:27:23;6.55;;;1.80;;
79139;SDS011;68546;59.142;37.948;2023-05-10T11:29:53;5.87;;;1.20;;
79139;SDS011;68546;59.142;37.948;2023-05-10T11:32:19;3.92;;;1.30;;
79139;SDS011;68546;59.142;37.948;2023-05-10T11:34:46;5.15;;;1.33;;
79139;SDS011;68546;59.142;37.948;2023-05-10T11:37:13;6.88;;;1.73;;
79139;SDS011;68546;59.142;37.948;2023-05-10T11:39:45;5.63;;;1.95;;
79139;SDS011;68546;59.142;37.948;2023-05-10T11:42:13;6.27;;;1.80;;
79139;SDS011;68546;59.142;37.948;2023-05-10T11:44:40;4.32;;;1.70;;
79139;SDS011;68546;59.142;37.948;2023-05-10T11:47:08;6.20;;;1.60;;
79139;SDS011;68546;59.142;37.948;2023-05-10T11:49:35;4.07;;;1.50;;
79139;SDS011;68546;59.142;37.948;2023-05-10T11:52:04;11.90;;;2.40;;
79139;SDS011;68546;59.142;37.948;2023-05-10T11:54:32;5.20;;;1.60;;
79139;SDS011;68546;59.142;37.948;2023-05-10T11:57:00;7.13;;;2.58;;
79139;SDS011;68546;59.142;37.948;2023-05-10T11:59:27;7.35;;;1.80;;
79139;SDS011;68546;59.142;37.948;2023-05-10T12:01:53;17.25;;;1.60;;
79139;SDS011;68546;59.142;37.948;2023-05-10T12:04:20;4.85;;;1.50;;
79139;SDS011;68546;59.142;37.948;2023-05-10T12:06:47;4.50;;;1.50;;
79139;SDS011;68546;59.142;37.948;2023-05-10T12:09:13;6.80;;;1.65;;
79139;SDS011;68546;59.142;37.948;2023-05-10T12:11:40;5.40;;;1.35;;
79139;SDS011;68546;59.142;37.948;2023-05-10T12:14:07;4.30;;;1.40;;
79139;SDS011;68546;59.142;37.948;2023-05-10T12:16:34;5.25;;;1.30;;
79139;SDS011;68546;59.142;37.948;2023-05-10T12:19:01;4.47;;;1.50;;
79139;SDS011;68546;59.142;37.948;2023-05-10T12:21:28;4.82;;;1.38;;
79139;SDS011;68546;59.142;37.948;2023-05-10T12:24:00;6.50;;;1.77;;
79139;SDS011;68546;59.142;37.948;2023-05-10T12:26:28;7.47;;;1.58;;
79139;SDS011;68546;59.142;37.948;2023-05-10T12:28:55;5.25;;;1.35;;
79139;SDS011;68546;59.142;37.948;2023-05-10T12:31:58;4.73;;;1.40;;
79139;SDS011;68546;59.142;37.948;2023-05-10T12:34:34;4.60;;;1.42;;
79139;SDS011;68546;59.142;37.948;2023-05-10T12:37:04;4.55;;;1.70;;
79139;SDS011;68546;59.142;37.948;2023-05-10T12:39:41;7.40;;;1.40;;
79139;SDS011;68546;59.142;37.948;2023-05-10T12:42:10;4.43;;;1.60;;
79139;SDS011;68546;59.142;37.948;2023-05-10T12:44:36;4.53;;;1.40;;
79139;SDS011;68546;59.142;37.948;2023-05-10T12:47:03;4.50;;;1.45;;
79139;SDS011;68546;59.142;37.948;2023-05-10T12:49:29;5.95;;;1.58;;
79139;SDS011;68546;59.142;37.948;2023-05-10T12:51:56;4.72;;;1.52;;
79139;SDS011;68546;59.142;37.948;2023-05-10T12:54:23;5.82;;;1.55;;
79139;SDS011;68546;59.142;37.948;2023-05-10T12:56:49;5.30;;;1.70;;
79139;SDS011;68546;59.142;37.948;2023-05-10T12:59:17;5.63;;;1.30;;
79139;SDS011;68546;59.142;37.948;2023-05-10T13:01:43;5.85;;;1.90;;
79139;SDS011;68546;59.142;37.948;2023-05-10T13:04:10;5.63;;;1.80;;
79139;SDS011;68546;59.142;37.948;2023-05-10T13:06:37;5.10;;;1.73;;
79139;SDS011;68546;59.142;37.948;2023-05-10T13:09:03;7.17;;;1.77;;
79139;SDS011;68546;59.142;37.948;2023-05-10T13:11:30;5.38;;;1.98;;
79139;SDS011;68546;59.142;37.948;2023-05-10T13:13:56;8.80;;;1.80;;
79139;SDS011;68546;59.142;37.948;2023-05-10T13:16:23;5.82;;;1.83;;
79139;SDS011;68546;59.142;37.948;2023-05-10T13:18:51;6.22;;;1.80;;
79139;SDS011;68546;59.142;37.948;2023-05-10T13:21:18;5.00;;;1.70;;
79139;SDS011;68546;59.142;37.948;2023-05-10T13:23:45;5.30;;;1.80;;
79139;SDS011;68546;59.142;37.948;2023-05-10T13:26:13;8.07;;;2.00;;
79139;SDS011;68546;59.142;37.948;2023-05-10T13:28:40;6.55;;;2.08;;
79139;SDS011;68546;59.142;37.948;2023-05-10T13:31:07;7.38;;;2.10;;
79139;SDS011;68546;59.142;37.948;2023-05-10T13:33:35;6.40;;;1.93;;
79139;SDS011;68546;59.142;37.948;2023-05-10T13:36:02;6.80;;;1.70;;
79139;SDS011;68546;59.142;37.948;2023-05-10T13:38:28;5.78;;;1.30;;
79139;SDS011;68546;59.142;37.948;2023-05-10T13:40:55;6.93;;;1.50;;
79139;SDS011;68546;59.142;37.948;2023-05-10T13:43:21;7.35;;;1.88;;
79139;SDS011;68546;59.142;37.948;2023-05-10T13:45:49;7.43;;;2.50;;
79139;SDS011;68546;59.142;37.948;2023-05-10T13:48:16;6.40;;;2.20;;
79139;SDS011;68546;59.142;37.948;2023-05-10T13:50:42;7.43;;;1.80;;
79139;SDS011;68546;59.142;37.948;2023-05-10T13:53:10;4.65;;;1.40;;
79139;SDS011;68546;59.142;37.948;2023-05-10T13:55:37;5.05;;;1.52;;
79139;SDS011;68546;59.142;37.948;2023-05-10T13:58:03;5.37;;;1.40;;
79139;SDS011;68546;59.142;37.948;2023-05-10T14:00:30;4.63;;;1.63;;
79139;SDS011;68546;59.142;37.948;2023-05-10T14:02:57;8.90;;;1.60;;
79139;SDS011;68546;59.142;37.948;2023-05-10T14:05:23;5.90;;;1.92;;
79139;SDS011;68546;59.142;37.948;2023-05-10T14:07:50;6.80;;;1.60;;
79139;SDS011;68546;59.142;37.948;2023-05-10T14:10:17;7.83;;;1.97;;
79139;SDS011;68546;59.142;37.948;2023-05-10T14:12:43;9.70;;;2.10;;
79139;SDS011;68546;59.142;37.948;2023-05-10T14:15:10;7.40;;;1.90;;
79139;SDS011;68546;59.142;37.948;2023-05-10T14:17:37;8.50;;;2.25;;
79139;SDS011;68546;59.142;37.948;2023-05-10T14:20:04;8.52;;;1.77;;
79139;SDS011;68546;59.142;37.948;2023-05-10T14:22:32;5.23;;;1.90;;
79139;SDS011;68546;59.142;37.948;2023-05-10T14:25:00;6.13;;;1.90;;
79139;SDS011;68546;59.142;37.948;2023-05-10T14:27:26;5.72;;;2.05;;
79139;SDS011;68546;59.142;37.948;2023-05-10T14:29:53;4.80;;;1.70;;
79139;SDS011;68546;59.142;37.948;2023-05-10T14:32:19;6.05;;;1.75;;
79139;SDS011;68546;59.142;37.948;2023-05-10T14:34:46;6.03;;;1.60;;
79139;SDS011;68546;59.142;37.948;2023-05-10T14:37:13;6.20;;;1.88;;
79139;SDS011;68546;59.142;37.948;2023-05-10T14:39:40;7.68;;;2.00;;
79139;SDS011;68546;59.142;37.948;2023-05-10T14:42:13;11.13;;;2.50;;
79139;SDS011;68546;59.142;37.948;2023-05-10T14:44:40;10.00;;;2.35;;
79139;SDS011;68546;59.142;37.948;2023-05-10T14:47:07;5.47;;;1.50;;
79139;SDS011;68546;59.142;37.948;2023-05-10T14:49:34;6.35;;;1.80;;
79139;SDS011;68546;59.142;37.948;2023-05-10T14:52:02;6.50;;;1.50;;
79139;SDS011;68546;59.142;37.948;2023-05-10T14:54:29;6.18;;;1.40;;
79139;SDS011;68546;59.142;37.948;2023-05-10T14:56:55;8.60;;;2.50;;
79139;SDS011;68546;59.142;37.948;2023-05-10T14:59:21;10.00;;;3.73;;
79139;SDS011;68546;59.142;37.948;2023-05-10T15:01:48;9.27;;;5.47;;
79139;SDS011;68546;59.142;37.948;2023-05-10T15:04:14;16.73;;;5.80;;
79139;SDS011;68546;59.142;37.948;2023-05-10T15:06:42;13.35;;;4.75;;
79139;SDS011;68546;59.142;37.948;2023-05-10T15:09:08;8.38;;;3.75;;
79139;SDS011;68546;59.142;37.948;2023-05-10T15:11:34;10.03;;;3.03;;
79139;SDS011;68546;59.142;37.948;2023-05-10T15:14:01;9.35;;;2.33;;
79139;SDS011;68546;59.142;37.948;2023-05-10T15:16:28;7.93;;;3.72;;
79139;SDS011;68546;59.142;37.948;2023-05-10T15:18:55;9.57;;;4.00;;